sensor_id;sensor_type;location;lat;lon;timestamp;P1;durP1;ratioP1;P2;durP2;ratioP2
10801;SDS011;5453;50.852;7.102;2023-07-24T00:01:32;1.98;;;1.30;;
10801;SDS011;5453;50.852;7.102;2023-07-24T00:04:05;1.95;;;1.20;;
10801;SDS011;5453;50.852;7.102;2023-07-24T00:06:40;1.83;;;1.25;;
10801;SDS011;5453;50.852;7.102;2023-07-24T00:09:12;3.15;;;1.70;;
10801;SDS011;5453;50.852;7.102;2023-07-24T00:11:46;2.33;;;1.40;;
10801;SDS011;5453;50.852;7.102;2023-07-24T00:14:19;1.60;;;1.30;;
10801;SDS011;5453;50.852;7.102;2023-07-24T00:16:54;2.08;;;1.40;;
10801;SDS011;5453;50.852;7.102;2023-07-24T00:19:26;1.75;;;1.25;;
10801;SDS011;5453;50.852;7.102;2023-07-24T00:21:59;2.22;;;1.52;;
10801;SDS011;5453;50.852;7.102;2023-07-24T00:24:32;2.72;;;1.48;;
10801;SDS011;5453;50.852;7.102;2023-07-24T00:27:06;1.83;;;1.23;;
10801;SDS011;5453;50.852;7.102;2023-07-24T00:29:38;1.42;;;1.15;;
10801;SDS011;5453;50.852;7.102;2023-07-24T00:32:11;1.83;;;1.33;;
10801;SDS011;5453;50.852;7.102;2023-07-24T00:34:46;2.33;;;1.52;;
10801;SDS011;5453;50.852;7.102;2023-07-24T00:37:19;1.83;;;1.30;;
10801;SDS011;5453;50.852;7.102;2023-07-24T00:39:51;2.72;;;1.45;;
10801;SDS011;5453;50.852;7.102;2023-07-24T00:42:25;1.63;;;1.25;;
10801;SDS011;5453;50.852;7.102;2023-07-24T00:44:57;2.20;;;1.40;;
10801;SDS011;5453;50.852;7.102;2023-07-24T00:47:30;1.75;;;1.20;;
10801;SDS011;5453;50.852;7.102;2023-07-24T00:50:03;1.80;;;1.00;;
10801;SDS011;5453;50.852;7.102;2023-07-24T00:52:40;1.80;;;1.17;;
10801;SDS011;5453;50.852;7.102;2023-07-24T00:55:13;2.72;;;1.50;;
10801;SDS011;5453;50.852;7.102;2023-07-24T00:57:48;2.17;;;1.17;;
10801;SDS011;5453;50.852;7.102;2023-07-24T01:02:53;2.40;;;1.50;;
10801;SDS011;5453;50.852;7.102;2023-07-24T01:05:27;2.25;;;1.10;;
10801;SDS011;5453;50.852;7.102;2023-07-24T01:08:00;1.90;;;1.27;;
10801;SDS011;5453;50.852;7.102;2023-07-24T01:10:34;2.63;;;1.40;;
10801;SDS011;5453;50.852;7.102;2023-07-24T01:13:08;2.17;;;1.40;;
10801;SDS011;5453;50.852;7.102;2023-07-24T01:15:48;1.50;;;1.30;;
10801;SDS011;5453;50.852;7.102;2023-07-24T01:18:26;1.85;;;1.35;;
10801;SDS011;5453;50.852;7.102;2023-07-24T01:21:02;2.40;;;1.30;;
10801;SDS011;5453;50.852;7.102;2023-07-24T01:23:44;1.52;;;1.27;;
10801;SDS011;5453;50.852;7.102;2023-07-24T01:26:29;1.67;;;1.10;;
10801;SDS011;5453;50.852;7.102;2023-07-24T01:29:02;3.10;;;1.33;;
10801;SDS011;5453;50.852;7.102;2023-07-24T01:31:34;3.97;;;1.60;;
10801;SDS011;5453;50.852;7.102;2023-07-24T01:34:07;1.73;;;1.30;;
10801;SDS011;5453;50.852;7.102;2023-07-24T01:36:39;2.35;;;1.30;;
10801;SDS011;5453;50.852;7.102;2023-07-24T01:39:12;2.10;;;1.25;;
10801;SDS011;5453;50.852;7.102;2023-07-24T01:41:46;2.20;;;1.33;;
10801;SDS011;5453;50.852;7.102;2023-07-24T01:44:19;1.77;;;1.23;;
10801;SDS011;5453;50.852;7.102;2023-07-24T01:46:54;1.83;;;1.30;;
10801;SDS011;5453;50.852;7.102;2023-07-24T01:49:27;2.72;;;1.40;;
10801;SDS011;5453;50.852;7.102;2023-07-24T01:51:59;2.03;;;1.50;;
10801;SDS011;5453;50.852;7.102;2023-07-24T01:54:32;2.67;;;1.20;;
10801;SDS011;5453;50.852;7.102;2023-07-24T01:57:06;2.67;;;1.55;;
10801;SDS011;5453;50.852;7.102;2023-07-24T01:59:38;1.88;;;1.38;;
10801;SDS011;5453;50.852;7.102;2023-07-24T02:02:10;2.17;;;1.35;;
10801;SDS011;5453;50.852;7.102;2023-07-24T02:04:46;2.25;;;1.23;;
10801;SDS011;5453;50.852;7.102;2023-07-24T02:07:18;1.73;;;1.40;;
10801;SDS011;5453;50.852;7.102;2023-07-24T02:09:51;2.63;;;1.42;;
10801;SDS011;5453;50.852;7.102;2023-07-24T02:12:25;2.72;;;1.63;;
10801;SDS011;5453;50.852;7.102;2023-07-24T02:15:00;2.45;;;1.45;;
10801;SDS011;5453;50.852;7.102;2023-07-24T02:17:32;2.65;;;1.40;;
10801;SDS011;5453;50.852;7.102;2023-07-24T02:20:06;2.70;;;1.60;;
10801;SDS011;5453;50.852;7.102;2023-07-24T02:22:42;2.20;;;1.33;;
10801;SDS011;5453;50.852;7.102;2023-07-24T02:25:14;2.50;;;1.50;;
10801;SDS011;5453;50.852;7.102;2023-07-24T02:27:48;2.05;;;1.20;;
10801;SDS011;5453;50.852;7.102;2023-07-24T02:30:21;2.85;;;1.60;;
10801;SDS011;5453;50.852;7.102;2023-07-24T02:32:56;1.85;;;1.27;;
10801;SDS011;5453;50.852;7.102;2023-07-24T02:35:29;2.17;;;1.40;;
10801;SDS011;5453;50.852;7.102;2023-07-24T02:38:01;2.33;;;1.40;;
10801;SDS011;5453;50.852;7.102;2023-07-24T02:40:33;2.90;;;1.50;;
10801;SDS011;5453;50.852;7.102;2023-07-24T02:43:11;2.15;;;1.42;;
10801;SDS011;5453;50.852;7.102;2023-07-24T02:45:44;3.00;;;1.65;;
10801;SDS011;5453;50.852;7.102;2023-07-24T02:48:16;2.72;;;1.60;;
10801;SDS011;5453;50.852;7.102;2023-07-24T02:50:48;3.25;;;1.60;;
10801;SDS011;5453;50.852;7.102;2023-07-24T02:53:21;2.85;;;1.60;;
10801;SDS011;5453;50.852;7.102;2023-07-24T02:55:53;3.90;;;1.90;;
10801;SDS011;5453;50.852;7.102;2023-07-24T02:58:27;3.55;;;1.80;;
10801;SDS011;5453;50.852;7.102;2023-07-24T03:01:03;3.33;;;1.83;;
10801;SDS011;5453;50.852;7.102;2023-07-24T03:03:36;2.80;;;1.60;;
10801;SDS011;5453;50.852;7.102;2023-07-24T03:06:09;2.67;;;1.50;;
10801;SDS011;5453;50.852;7.102;2023-07-24T03:08:41;3.10;;;1.70;;
10801;SDS011;5453;50.852;7.102;2023-07-24T03:11:13;2.72;;;1.50;;
10801;SDS011;5453;50.852;7.102;2023-07-24T03:13:47;3.25;;;1.65;;
10801;SDS011;5453;50.852;7.102;2023-07-24T03:16:20;4.75;;;1.50;;
10801;SDS011;5453;50.852;7.102;2023-07-24T03:18:52;2.92;;;1.50;;
10801;SDS011;5453;50.852;7.102;2023-07-24T03:21:24;2.92;;;1.63;;
10801;SDS011;5453;50.852;7.102;2023-07-24T03:23:57;2.20;;;1.55;;
10801;SDS011;5453;50.852;7.102;2023-07-24T03:26:29;2.45;;;1.40;;
10801;SDS011;5453;50.852;7.102;2023-07-24T03:29:06;2.88;;;1.70;;
10801;SDS011;5453;50.852;7.102;2023-07-24T03:31:39;2.58;;;1.75;;
10801;SDS011;5453;50.852;7.102;2023-07-24T03:34:11;3.28;;;1.77;;
10801;SDS011;5453;50.852;7.102;2023-07-24T03:36:43;2.50;;;1.42;;
10801;SDS011;5453;50.852;7.102;2023-07-24T03:39:16;3.28;;;1.90;;
10801;SDS011;5453;50.852;7.102;2023-07-24T03:41:48;2.70;;;1.40;;
10801;SDS011;5453;50.852;7.102;2023-07-24T03:44:22;3.13;;;1.80;;
10801;SDS011;5453;50.852;7.102;2023-07-24T03:46:58;2.08;;;1.17;;
10801;SDS011;5453;50.852;7.102;2023-07-24T03:49:30;2.60;;;1.50;;
10801;SDS011;5453;50.852;7.102;2023-07-24T03:52:03;3.33;;;1.40;;
10801;SDS011;5453;50.852;7.102;2023-07-24T03:54:36;2.65;;;1.60;;
10801;SDS011;5453;50.852;7.102;2023-07-24T03:57:12;3.35;;;1.70;;
10801;SDS011;5453;50.852;7.102;2023-07-24T03:59:46;3.65;;;2.00;;
10801;SDS011;5453;50.852;7.102;2023-07-24T04:02:18;2.45;;;1.27;;
10801;SDS011;5453;50.852;7.102;2023-07-24T04:04:54;3.15;;;1.67;;
10801;SDS011;5453;50.852;7.102;2023-07-24T04:07:26;2.83;;;1.77;;
10801;SDS011;5453;50.852;7.102;2023-07-24T04:09:59;2.53;;;1.50;;
10801;SDS011;5453;50.852;7.102;2023-07-24T04:12:31;3.28;;;1.80;;
10801;SDS011;5453;50.852;7.102;2023-07-24T04:15:05;2.53;;;1.50;;
10801;SDS011;5453;50.852;7.102;2023-07-24T04:17:39;2.97;;;1.60;;
10801;SDS011;5453;50.852;7.102;2023-07-24T04:20:12;2.95;;;2.00;;
10801;SDS011;5453;50.852;7.102;2023-07-24T04:22:44;3.00;;;1.60;;
10801;SDS011;5453;50.852;7.102;2023-07-24T04:25:19;2.97;;;1.70;;
10801;SDS011;5453;50.852;7.102;2023-07-24T04:27:52;4.25;;;1.55;;
10801;SDS011;5453;50.852;7.102;2023-07-24T04:30:25;2.92;;;1.83;;
10801;SDS011;5453;50.852;7.102;2023-07-24T04:32:58;4.82;;;2.00;;
10801;SDS011;5453;50.852;7.102;2023-07-24T04:35:30;3.83;;;1.70;;
10801;SDS011;5453;50.852;7.102;2023-07-24T04:38:03;4.10;;;1.95;;
10801;SDS011;5453;50.852;7.102;2023-07-24T04:40:35;3.05;;;1.85;;
10801;SDS011;5453;50.852;7.102;2023-07-24T04:43:11;2.92;;;1.65;;
10801;SDS011;5453;50.852;7.102;2023-07-24T04:45:44;4.22;;;1.80;;
10801;SDS011;5453;50.852;7.102;2023-07-24T04:48:17;3.53;;;2.10;;
10801;SDS011;5453;50.852;7.102;2023-07-24T04:50:52;4.28;;;1.92;;
10801;SDS011;5453;50.852;7.102;2023-07-24T04:53:25;4.88;;;2.10;;
10801;SDS011;5453;50.852;7.102;2023-07-24T04:55:58;5.57;;;2.10;;
10801;SDS011;5453;50.852;7.102;2023-07-24T04:58:30;3.42;;;2.10;;
10801;SDS011;5453;50.852;7.102;2023-07-24T05:01:04;3.63;;;1.67;;
10801;SDS011;5453;50.852;7.102;2023-07-24T05:03:36;5.80;;;2.25;;
10801;SDS011;5453;50.852;7.102;2023-07-24T05:06:09;4.05;;;2.00;;
10801;SDS011;5453;50.852;7.102;2023-07-24T05:08:41;3.42;;;1.98;;
10801;SDS011;5453;50.852;7.102;2023-07-24T05:11:13;3.83;;;1.90;;
10801;SDS011;5453;50.852;7.102;2023-07-24T05:13:49;3.42;;;1.90;;
10801;SDS011;5453;50.852;7.102;2023-07-24T05:16:22;4.88;;;2.20;;
10801;SDS011;5453;50.852;7.102;2023-07-24T05:18:55;3.13;;;1.63;;
10801;SDS011;5453;50.852;7.102;2023-07-24T05:21:27;3.67;;;2.10;;
10801;SDS011;5453;50.852;7.102;2023-07-24T05:24:00;4.80;;;1.88;;
10801;SDS011;5453;50.852;7.102;2023-07-24T05:26:33;4.97;;;2.10;;
10801;SDS011;5453;50.852;7.102;2023-07-24T05:29:05;4.78;;;2.10;;
10801;SDS011;5453;50.852;7.102;2023-07-24T05:31:39;4.97;;;2.13;;
10801;SDS011;5453;50.852;7.102;2023-07-24T05:34:11;5.00;;;2.35;;
10801;SDS011;5453;50.852;7.102;2023-07-24T05:36:43;6.28;;;2.47;;
10801;SDS011;5453;50.852;7.102;2023-07-24T05:39:16;5.40;;;2.15;;
10801;SDS011;5453;50.852;7.102;2023-07-24T05:41:48;5.97;;;2.63;;
10801;SDS011;5453;50.852;7.102;2023-07-24T05:44:20;3.42;;;2.00;;
10801;SDS011;5453;50.852;7.102;2023-07-24T05:46:54;5.10;;;2.20;;
10801;SDS011;5453;50.852;7.102;2023-07-24T05:49:30;4.38;;;2.17;;
10801;SDS011;5453;50.852;7.102;2023-07-24T05:52:02;6.10;;;2.10;;
10801;SDS011;5453;50.852;7.102;2023-07-24T05:54:35;3.88;;;2.00;;
10801;SDS011;5453;50.852;7.102;2023-07-24T05:57:11;3.78;;;2.05;;
10801;SDS011;5453;50.852;7.102;2023-07-24T05:59:43;4.72;;;2.30;;
10801;SDS011;5453;50.852;7.102;2023-07-24T06:02:17;4.30;;;2.10;;
10801;SDS011;5453;50.852;7.102;2023-07-24T06:04:49;4.05;;;2.00;;
10801;SDS011;5453;50.852;7.102;2023-07-24T06:07:25;4.25;;;2.38;;
10801;SDS011;5453;50.852;7.102;2023-07-24T06:09:57;4.10;;;2.15;;
10801;SDS011;5453;50.852;7.102;2023-07-24T06:12:29;5.05;;;1.95;;
10801;SDS011;5453;50.852;7.102;2023-07-24T06:15:02;4.00;;;2.08;;
10801;SDS011;5453;50.852;7.102;2023-07-24T06:17:36;6.00;;;2.00;;
10801;SDS011;5453;50.852;7.102;2023-07-24T06:20:09;6.15;;;2.15;;
10801;SDS011;5453;50.852;7.102;2023-07-24T06:22:42;3.67;;;1.90;;
10801;SDS011;5453;50.852;7.102;2023-07-24T06:25:14;3.92;;;1.95;;
10801;SDS011;5453;50.852;7.102;2023-07-24T06:27:46;4.35;;;2.15;;
10801;SDS011;5453;50.852;7.102;2023-07-24T06:30:19;4.43;;;2.00;;
10801;SDS011;5453;50.852;7.102;2023-07-24T06:32:53;4.13;;;2.03;;
10801;SDS011;5453;50.852;7.102;2023-07-24T06:35:25;3.55;;;2.03;;
10801;SDS011;5453;50.852;7.102;2023-07-24T06:37:57;5.88;;;2.13;;
10801;SDS011;5453;50.852;7.102;2023-07-24T06:40:30;5.10;;;2.63;;
10801;SDS011;5453;50.852;7.102;2023-07-24T06:43:02;4.47;;;2.17;;
10801;SDS011;5453;50.852;7.102;2023-07-24T06:45:34;4.85;;;2.38;;
10801;SDS011;5453;50.852;7.102;2023-07-24T06:48:08;3.08;;;1.75;;
10801;SDS011;5453;50.852;7.102;2023-07-24T06:50:41;4.07;;;2.05;;
10801;SDS011;5453;50.852;7.102;2023-07-24T06:53:13;3.95;;;1.85;;
10801;SDS011;5453;50.852;7.102;2023-07-24T06:55:45;3.08;;;1.73;;
10801;SDS011;5453;50.852;7.102;2023-07-24T06:58:18;4.18;;;1.70;;
10801;SDS011;5453;50.852;7.102;2023-07-24T07:00:51;3.17;;;1.88;;
10801;SDS011;5453;50.852;7.102;2023-07-24T07:03:28;3.63;;;1.90;;
10801;SDS011;5453;50.852;7.102;2023-07-24T07:06:00;4.93;;;2.17;;
10801;SDS011;5453;50.852;7.102;2023-07-24T07:08:33;4.40;;;2.33;;
10801;SDS011;5453;50.852;7.102;2023-07-24T07:11:05;3.10;;;1.65;;
10801;SDS011;5453;50.852;7.102;2023-07-24T07:13:40;5.18;;;2.22;;
10801;SDS011;5453;50.852;7.102;2023-07-24T07:16:13;4.05;;;2.17;;
10801;SDS011;5453;50.852;7.102;2023-07-24T07:18:48;2.85;;;1.75;;
10801;SDS011;5453;50.852;7.102;2023-07-24T07:21:20;4.18;;;1.52;;
10801;SDS011;5453;50.852;7.102;2023-07-24T07:23:52;3.38;;;1.98;;
10801;SDS011;5453;50.852;7.102;2023-07-24T07:26:26;3.78;;;1.90;;
10801;SDS011;5453;50.852;7.102;2023-07-24T07:28:59;4.97;;;2.47;;
10801;SDS011;5453;50.852;7.102;2023-07-24T07:31:32;3.17;;;1.77;;
10801;SDS011;5453;50.852;7.102;2023-07-24T07:34:05;3.00;;;1.80;;
10801;SDS011;5453;50.852;7.102;2023-07-24T07:36:38;3.63;;;1.90;;
10801;SDS011;5453;50.852;7.102;2023-07-24T07:39:10;4.05;;;2.28;;
10801;SDS011;5453;50.852;7.102;2023-07-24T07:41:43;3.50;;;2.00;;
10801;SDS011;5453;50.852;7.102;2023-07-24T07:44:15;3.50;;;1.75;;
10801;SDS011;5453;50.852;7.102;2023-07-24T07:46:47;3.40;;;1.50;;
10801;SDS011;5453;50.852;7.102;2023-07-24T07:49:24;2.72;;;1.52;;
10801;SDS011;5453;50.852;7.102;2023-07-24T07:51:56;3.67;;;1.90;;
10801;SDS011;5453;50.852;7.102;2023-07-24T07:54:29;4.07;;;1.85;;
10801;SDS011;5453;50.852;7.102;2023-07-24T07:57:02;2.75;;;1.63;;
10801;SDS011;5453;50.852;7.102;2023-07-24T07:59:36;3.85;;;1.90;;
10801;SDS011;5453;50.852;7.102;2023-07-24T08:02:08;4.05;;;1.92;;
10801;SDS011;5453;50.852;7.102;2023-07-24T08:04:42;3.22;;;1.77;;
10801;SDS011;5453;50.852;7.102;2023-07-24T08:07:14;3.90;;;1.70;;
10801;SDS011;5453;50.852;7.102;2023-07-24T08:09:47;2.90;;;1.90;;
10801;SDS011;5453;50.852;7.102;2023-07-24T08:12:19;3.00;;;1.83;;
10801;SDS011;5453;50.852;7.102;2023-07-24T08:14:51;3.33;;;1.85;;
10801;SDS011;5453;50.852;7.102;2023-07-24T08:17:24;3.97;;;1.98;;
10801;SDS011;5453;50.852;7.102;2023-07-24T08:19:57;2.88;;;2.08;;
10801;SDS011;5453;50.852;7.102;2023-07-24T08:22:30;3.70;;;1.80;;
10801;SDS011;5453;50.852;7.102;2023-07-24T08:25:02;3.30;;;1.90;;
10801;SDS011;5453;50.852;7.102;2023-07-24T08:27:35;3.40;;;1.85;;
10801;SDS011;5453;50.852;7.102;2023-07-24T08:30:08;3.42;;;1.88;;
10801;SDS011;5453;50.852;7.102;2023-07-24T08:32:41;4.32;;;2.38;;
10801;SDS011;5453;50.852;7.102;2023-07-24T08:35:15;3.83;;;1.88;;
10801;SDS011;5453;50.852;7.102;2023-07-24T08:37:48;3.17;;;1.80;;
10801;SDS011;5453;50.852;7.102;2023-07-24T08:40:20;3.97;;;1.85;;
10801;SDS011;5453;50.852;7.102;2023-07-24T08:42:52;3.10;;;2.10;;
10801;SDS011;5453;50.852;7.102;2023-07-24T08:45:28;3.80;;;2.00;;
10801;SDS011;5453;50.852;7.102;2023-07-24T08:48:02;4.38;;;2.10;;
10801;SDS011;5453;50.852;7.102;2023-07-24T08:50:36;3.65;;;1.75;;
10801;SDS011;5453;50.852;7.102;2023-07-24T08:53:08;3.08;;;1.98;;
10801;SDS011;5453;50.852;7.102;2023-07-24T08:55:41;3.70;;;2.05;;
10801;SDS011;5453;50.852;7.102;2023-07-24T08:58:14;2.65;;;1.70;;
10801;SDS011;5453;50.852;7.102;2023-07-24T09:00:46;3.92;;;1.70;;
10801;SDS011;5453;50.852;7.102;2023-07-24T09:03:19;5.82;;;1.90;;
10801;SDS011;5453;50.852;7.102;2023-07-24T09:05:53;3.13;;;1.60;;
10801;SDS011;5453;50.852;7.102;2023-07-24T09:08:29;3.28;;;1.77;;
10801;SDS011;5453;50.852;7.102;2023-07-24T09:11:02;2.90;;;1.70;;
10801;SDS011;5453;50.852;7.102;2023-07-24T09:13:40;3.25;;;1.92;;
10801;SDS011;5453;50.852;7.102;2023-07-24T09:16:23;3.47;;;1.70;;
10801;SDS011;5453;50.852;7.102;2023-07-24T09:18:56;3.25;;;2.10;;
10801;SDS011;5453;50.852;7.102;2023-07-24T09:21:31;3.92;;;1.88;;
10801;SDS011;5453;50.852;7.102;2023-07-24T09:24:13;2.40;;;1.50;;
10801;SDS011;5453;50.852;7.102;2023-07-24T09:26:47;3.25;;;1.90;;
10801;SDS011;5453;50.852;7.102;2023-07-24T09:31:52;5.65;;;1.70;;
10801;SDS011;5453;50.852;7.102;2023-07-24T09:34:25;3.83;;;1.73;;
10801;SDS011;5453;50.852;7.102;2023-07-24T09:36:58;2.92;;;1.58;;
10801;SDS011;5453;50.852;7.102;2023-07-24T09:39:34;3.22;;;1.70;;
10801;SDS011;5453;50.852;7.102;2023-07-24T09:42:06;3.47;;;1.50;;
10801;SDS011;5453;50.852;7.102;2023-07-24T09:44:39;2.58;;;1.75;;
10801;SDS011;5453;50.852;7.102;2023-07-24T09:47:11;3.83;;;1.80;;
10801;SDS011;5453;50.852;7.102;2023-07-24T09:49:47;3.42;;;1.80;;
10801;SDS011;5453;50.852;7.102;2023-07-24T09:52:21;3.60;;;1.77;;
10801;SDS011;5453;50.852;7.102;2023-07-24T09:54:58;3.58;;;1.60;;
10801;SDS011;5453;50.852;7.102;2023-07-24T09:57:39;3.88;;;1.80;;
10801;SDS011;5453;50.852;7.102;2023-07-24T10:00:13;3.45;;;1.48;;
10801;SDS011;5453;50.852;7.102;2023-07-24T10:02:46;4.30;;;1.63;;
10801;SDS011;5453;50.852;7.102;2023-07-24T10:05:19;3.38;;;1.63;;
10801;SDS011;5453;50.852;7.102;2023-07-24T10:07:56;2.88;;;1.70;;
10801;SDS011;5453;50.852;7.102;2023-07-24T10:10:30;2.45;;;1.35;;
10801;SDS011;5453;50.852;7.102;2023-07-24T10:13:03;3.90;;;1.90;;
10801;SDS011;5453;50.852;7.102;2023-07-24T10:15:36;7.60;;;2.88;;
10801;SDS011;5453;50.852;7.102;2023-07-24T10:18:09;5.55;;;2.15;;
10801;SDS011;5453;50.852;7.102;2023-07-24T10:20:41;3.85;;;1.70;;
10801;SDS011;5453;50.852;7.102;2023-07-24T10:23:17;3.45;;;1.73;;
10801;SDS011;5453;50.852;7.102;2023-07-24T10:25:50;3.55;;;2.03;;
10801;SDS011;5453;50.852;7.102;2023-07-24T10:28:29;3.75;;;1.70;;
10801;SDS011;5453;50.852;7.102;2023-07-24T10:31:03;2.83;;;1.60;;
10801;SDS011;5453;50.852;7.102;2023-07-24T10:33:44;2.72;;;1.50;;
10801;SDS011;5453;50.852;7.102;2023-07-24T10:36:17;3.30;;;2.13;;
10801;SDS011;5453;50.852;7.102;2023-07-24T10:38:54;3.00;;;1.73;;
10801;SDS011;5453;50.852;7.102;2023-07-24T10:41:34;3.53;;;1.80;;
10801;SDS011;5453;50.852;7.102;2023-07-24T10:44:09;3.20;;;1.73;;
10801;SDS011;5453;50.852;7.102;2023-07-24T10:46:42;3.65;;;1.90;;
10801;SDS011;5453;50.852;7.102;2023-07-24T10:49:14;2.63;;;1.67;;
10801;SDS011;5453;50.852;7.102;2023-07-24T10:51:55;2.50;;;1.52;;
10801;SDS011;5453;50.852;7.102;2023-07-24T10:54:31;3.85;;;1.63;;
10801;SDS011;5453;50.852;7.102;2023-07-24T10:57:04;2.67;;;1.45;;
10801;SDS011;5453;50.852;7.102;2023-07-24T10:59:37;3.53;;;1.50;;
10801;SDS011;5453;50.852;7.102;2023-07-24T11:02:10;3.47;;;1.67;;
10801;SDS011;5453;50.852;7.102;2023-07-24T11:04:43;2.85;;;1.73;;
10801;SDS011;5453;50.852;7.102;2023-07-24T11:07:15;1.83;;;1.40;;
10801;SDS011;5453;50.852;7.102;2023-07-24T11:09:52;2.13;;;1.40;;
10801;SDS011;5453;50.852;7.102;2023-07-24T11:12:25;2.75;;;1.50;;
10801;SDS011;5453;50.852;7.102;2023-07-24T11:15:01;2.72;;;1.52;;
10801;SDS011;5453;50.852;7.102;2023-07-24T11:17:33;3.22;;;1.90;;
10801;SDS011;5453;50.852;7.102;2023-07-24T11:20:11;4.35;;;1.92;;
10801;SDS011;5453;50.852;7.102;2023-07-24T11:22:45;3.22;;;2.10;;
10801;SDS011;5453;50.852;7.102;2023-07-24T11:25:18;3.45;;;2.08;;
10801;SDS011;5453;50.852;7.102;2023-07-24T11:27:54;3.35;;;1.90;;
10801;SDS011;5453;50.852;7.102;2023-07-24T11:30:26;3.28;;;1.75;;
10801;SDS011;5453;50.852;7.102;2023-07-24T11:33:00;2.80;;;1.60;;
10801;SDS011;5453;50.852;7.102;2023-07-24T11:35:34;3.83;;;2.03;;
10801;SDS011;5453;50.852;7.102;2023-07-24T11:38:12;5.75;;;3.45;;
10801;SDS011;5453;50.852;7.102;2023-07-24T11:40:46;7.03;;;4.32;;
10801;SDS011;5453;50.852;7.102;2023-07-24T11:43:19;5.68;;;3.00;;
10801;SDS011;5453;50.852;7.102;2023-07-24T11:45:53;7.97;;;3.38;;
10801;SDS011;5453;50.852;7.102;2023-07-24T11:48:26;6.38;;;2.92;;
10801;SDS011;5453;50.852;7.102;2023-07-24T11:50:58;6.60;;;2.92;;
10801;SDS011;5453;50.852;7.102;2023-07-24T11:53:31;8.02;;;3.50;;
10801;SDS011;5453;50.852;7.102;2023-07-24T11:56:13;6.13;;;2.88;;
10801;SDS011;5453;50.852;7.102;2023-07-24T11:58:46;3.65;;;2.13;;
10801;SDS011;5453;50.852;7.102;2023-07-24T12:01:19;4.63;;;2.00;;
10801;SDS011;5453;50.852;7.102;2023-07-24T12:03:54;3.72;;;2.10;;
10801;SDS011;5453;50.852;7.102;2023-07-24T12:06:26;3.65;;;1.75;;
10801;SDS011;5453;50.852;7.102;2023-07-24T12:09:03;4.43;;;2.42;;
10801;SDS011;5453;50.852;7.102;2023-07-24T12:11:40;5.32;;;2.55;;
10801;SDS011;5453;50.852;7.102;2023-07-24T12:14:17;8.98;;;4.72;;
10801;SDS011;5453;50.852;7.102;2023-07-24T12:16:49;5.85;;;3.22;;
10801;SDS011;5453;50.852;7.102;2023-07-24T12:19:24;6.95;;;3.55;;
10801;SDS011;5453;50.852;7.102;2023-07-24T12:21:57;7.07;;;3.53;;
10801;SDS011;5453;50.852;7.102;2023-07-24T12:24:29;6.85;;;2.50;;
10801;SDS011;5453;50.852;7.102;2023-07-24T12:27:03;5.68;;;2.55;;
10801;SDS011;5453;50.852;7.102;2023-07-24T12:29:36;5.82;;;2.50;;
10801;SDS011;5453;50.852;7.102;2023-07-24T12:32:11;4.65;;;1.90;;
10801;SDS011;5453;50.852;7.102;2023-07-24T12:34:43;4.50;;;2.17;;
10801;SDS011;5453;50.852;7.102;2023-07-24T12:37:18;4.35;;;2.20;;
10801;SDS011;5453;50.852;7.102;2023-07-24T12:39:51;2.90;;;1.58;;
10801;SDS011;5453;50.852;7.102;2023-07-24T12:42:25;3.38;;;1.42;;
10801;SDS011;5453;50.852;7.102;2023-07-24T12:44:57;3.20;;;1.40;;
10801;SDS011;5453;50.852;7.102;2023-07-24T12:47:30;2.55;;;1.50;;
10801;SDS011;5453;50.852;7.102;2023-07-24T12:50:03;2.00;;;1.25;;
10801;SDS011;5453;50.852;7.102;2023-07-24T12:52:36;2.35;;;1.15;;
10801;SDS011;5453;50.852;7.102;2023-07-24T12:55:08;2.72;;;1.30;;
10801;SDS011;5453;50.852;7.102;2023-07-24T12:57:42;2.15;;;1.33;;
10801;SDS011;5453;50.852;7.102;2023-07-24T13:00:18;3.28;;;1.45;;
10801;SDS011;5453;50.852;7.102;2023-07-24T13:02:50;3.03;;;1.40;;
10801;SDS011;5453;50.852;7.102;2023-07-24T13:05:22;3.42;;;1.30;;
10801;SDS011;5453;50.852;7.102;2023-07-24T13:07:55;4.25;;;1.52;;
10801;SDS011;5453;50.852;7.102;2023-07-24T13:10:27;3.20;;;1.40;;
10801;SDS011;5453;50.852;7.102;2023-07-24T13:13:01;2.38;;;1.38;;
10801;SDS011;5453;50.852;7.102;2023-07-24T13:15:33;3.60;;;1.38;;
10801;SDS011;5453;50.852;7.102;2023-07-24T13:18:06;2.33;;;1.35;;
10801;SDS011;5453;50.852;7.102;2023-07-24T13:20:38;1.85;;;1.10;;
10801;SDS011;5453;50.852;7.102;2023-07-24T13:23:10;1.83;;;1.08;;
10801;SDS011;5453;50.852;7.102;2023-07-24T13:25:43;2.33;;;1.17;;
10801;SDS011;5453;50.852;7.102;2023-07-24T13:28:19;2.80;;;1.30;;
10801;SDS011;5453;50.852;7.102;2023-07-24T13:30:52;2.15;;;1.35;;
10801;SDS011;5453;50.852;7.102;2023-07-24T13:33:24;3.00;;;1.20;;
10801;SDS011;5453;50.852;7.102;2023-07-24T13:35:56;2.50;;;1.17;;
10801;SDS011;5453;50.852;7.102;2023-07-24T13:38:29;1.98;;;0.90;;
10801;SDS011;5453;50.852;7.102;2023-07-24T13:41:02;1.33;;;1.00;;
10801;SDS011;5453;50.852;7.102;2023-07-24T13:43:37;1.80;;;1.23;;
10801;SDS011;5453;50.852;7.102;2023-07-24T13:46:09;4.57;;;1.33;;
10801;SDS011;5453;50.852;7.102;2023-07-24T13:48:41;2.78;;;1.23;;
10801;SDS011;5453;50.852;7.102;2023-07-24T13:51:14;2.35;;;1.50;;
10801;SDS011;5453;50.852;7.102;2023-07-24T13:53:46;2.30;;;1.25;;
10801;SDS011;5453;50.852;7.102;2023-07-24T13:56:21;3.05;;;1.30;;
10801;SDS011;5453;50.852;7.102;2023-07-24T13:58:55;2.53;;;1.35;;
10801;SDS011;5453;50.852;7.102;2023-07-24T14:01:28;1.90;;;1.20;;
10801;SDS011;5453;50.852;7.102;2023-07-24T14:04:00;1.83;;;1.25;;
10801;SDS011;5453;50.852;7.102;2023-07-24T14:06:33;1.83;;;1.30;;
10801;SDS011;5453;50.852;7.102;2023-07-24T14:09:05;2.45;;;1.08;;
10801;SDS011;5453;50.852;7.102;2023-07-24T14:11:38;2.15;;;1.05;;
10801;SDS011;5453;50.852;7.102;2023-07-24T14:14:11;2.25;;;1.00;;
10801;SDS011;5453;50.852;7.102;2023-07-24T14:16:44;2.50;;;1.35;;
10801;SDS011;5453;50.852;7.102;2023-07-24T14:19:16;4.55;;;1.60;;
10801;SDS011;5453;50.852;7.102;2023-07-24T14:21:49;2.63;;;1.25;;
10801;SDS011;5453;50.852;7.102;2023-07-24T14:24:22;2.13;;;1.30;;
10801;SDS011;5453;50.852;7.102;2023-07-24T14:26:54;2.45;;;1.20;;
10801;SDS011;5453;50.852;7.102;2023-07-24T14:29:28;4.53;;;1.73;;
10801;SDS011;5453;50.852;7.102;2023-07-24T14:32:00;2.35;;;1.10;;
10801;SDS011;5453;50.852;7.102;2023-07-24T14:34:35;1.80;;;1.10;;
10801;SDS011;5453;50.852;7.102;2023-07-24T14:37:08;1.58;;;1.17;;
10801;SDS011;5453;50.852;7.102;2023-07-24T14:39:40;3.13;;;0.98;;
10801;SDS011;5453;50.852;7.102;2023-07-24T14:42:14;2.35;;;1.10;;
10801;SDS011;5453;50.852;7.102;2023-07-24T14:44:48;3.10;;;1.23;;
10801;SDS011;5453;50.852;7.102;2023-07-24T14:47:20;2.35;;;1.27;;
10801;SDS011;5453;50.852;7.102;2023-07-24T14:49:53;1.80;;;1.00;;
10801;SDS011;5453;50.852;7.102;2023-07-24T14:52:28;1.67;;;1.08;;
10801;SDS011;5453;50.852;7.102;2023-07-24T14:55:01;1.90;;;0.90;;
10801;SDS011;5453;50.852;7.102;2023-07-24T14:57:33;1.88;;;0.98;;
10801;SDS011;5453;50.852;7.102;2023-07-24T15:00:08;1.50;;;1.00;;
10801;SDS011;5453;50.852;7.102;2023-07-24T15:02:42;1.63;;;0.90;;
10801;SDS011;5453;50.852;7.102;2023-07-24T15:05:14;2.20;;;1.20;;
10801;SDS011;5453;50.852;7.102;2023-07-24T15:07:46;1.38;;;0.80;;
10801;SDS011;5453;50.852;7.102;2023-07-24T15:10:22;1.10;;;1.00;;
10801;SDS011;5453;50.852;7.102;2023-07-24T15:12:54;1.35;;;1.10;;
10801;SDS011;5453;50.852;7.102;2023-07-24T15:15:28;9.60;;;5.82;;
10801;SDS011;5453;50.852;7.102;2023-07-24T15:18:00;12.95;;;7.80;;
10801;SDS011;5453;50.852;7.102;2023-07-24T15:20:33;13.95;;;8.30;;
10801;SDS011;5453;50.852;7.102;2023-07-24T15:23:05;12.25;;;7.15;;
10801;SDS011;5453;50.852;7.102;2023-07-24T15:25:38;10.40;;;5.95;;
10801;SDS011;5453;50.852;7.102;2023-07-24T15:28:10;7.68;;;4.68;;
10801;SDS011;5453;50.852;7.102;2023-07-24T15:30:44;7.53;;;4.30;;
10801;SDS011;5453;50.852;7.102;2023-07-24T15:33:16;5.30;;;3.17;;
10801;SDS011;5453;50.852;7.102;2023-07-24T15:35:49;3.15;;;2.20;;
10801;SDS011;5453;50.852;7.102;2023-07-24T15:38:24;3.92;;;1.95;;
10801;SDS011;5453;50.852;7.102;2023-07-24T15:40:59;2.60;;;1.63;;
10801;SDS011;5453;50.852;7.102;2023-07-24T15:43:32;1.98;;;1.38;;